createdAt,value
2018-07-21T00:01:22.427Z,9.90
2018-07-21T00:06:19.948Z,10.30
2018-07-21T00:11:25.631Z,9.67
2018-07-21T00:16:23.352Z,10.20
2018-07-21T00:21:20.935Z,9.37
2018-07-21T00:26:18.439Z,9.50
2018-07-21T00:31:15.976Z,9.60
2018-07-21T00:36:13.485Z,9.90
2018-07-21T00:41:25.309Z,9.60
2018-07-21T00:46:22.962Z,9.70
2018-07-21T00:51:20.552Z,10.40
2018-07-21T00:56:18.064Z,9.70
2018-07-21T01:01:15.611Z,9.83
2018-07-21T01:06:13.144Z,10.77
2018-07-21T01:11:24.271Z,10.27
2018-07-21T01:16:22.320Z,8.93
2018-07-21T01:21:19.852Z,8.87
2018-07-21T01:26:17.447Z,12.57
2018-07-21T01:31:14.975Z,9.60
2018-07-21T01:36:12.495Z,10.67
2018-07-21T01:41:10.006Z,10.53
2018-07-21T01:46:07.543Z,10.70
2018-07-21T01:51:05.059Z,11.20
2018-07-21T01:56:02.604Z,11.37
2018-07-21T02:01:00.284Z,11.30
2018-07-21T02:05:57.806Z,9.90
2018-07-21T02:10:58.028Z,10.07
2018-07-21T02:15:55.667Z,9.93
2018-07-21T02:20:53.167Z,9.80
2018-07-21T02:25:50.680Z,9.67
2018-07-21T02:30:48.209Z,9.40
2018-07-21T02:35:45.725Z,10.20
2018-07-21T02:40:43.224Z,10.40
2018-07-21T02:45:40.771Z,8.83
2018-07-21T02:50:38.259Z,10.23
2018-07-21T02:55:35.788Z,9.73
2018-07-21T03:00:33.349Z,9.70
2018-07-21T03:05:30.916Z,8.57
2018-07-21T03:10:28.408Z,8.60
2018-07-21T03:15:26.163Z,9.00
2018-07-21T03:20:23.697Z,9.10
2018-07-21T03:25:21.219Z,8.80
2018-07-21T03:30:19.155Z,8.30
2018-07-21T03:35:16.663Z,8.83
2018-07-21T03:40:14.187Z,8.90
2018-07-21T03:45:11.735Z,8.87
2018-07-21T03:50:09.230Z,7.93
2018-07-21T03:55:06.820Z,9.50
2018-07-21T04:00:04.862Z,10.40
2018-07-21T04:05:02.377Z,9.33
2018-07-21T04:09:59.899Z,8.63
2018-07-21T04:14:57.476Z,9.00
2018-07-21T04:19:55.863Z,8.37
2018-07-21T04:24:53.648Z,9.37
2018-07-21T04:29:51.740Z,8.63
2018-07-21T04:34:49.250Z,9.30
2018-07-21T04:39:46.817Z,8.53
2018-07-21T04:44:44.360Z,7.33
2018-07-21T04:49:41.883Z,9.03
2018-07-21T04:54:39.413Z,8.50
2018-07-21T04:59:36.999Z,8.97
2018-07-21T05:04:36.480Z,8.93
2018-07-21T05:09:34.189Z,9.03
2018-07-21T05:14:31.794Z,8.40
2018-07-21T05:19:29.343Z,8.77
2018-07-21T05:24:27.065Z,8.20
2018-07-21T05:29:24.707Z,8.40
2018-07-21T05:34:22.215Z,8.80
2018-07-21T05:39:19.768Z,9.30
2018-07-21T05:44:17.317Z,9.07
2018-07-21T05:49:14.848Z,8.57
2018-07-21T05:54:12.373Z,8.27
2018-07-21T05:59:09.932Z,8.63
2018-07-21T06:04:07.429Z,8.13
2018-07-21T06:09:06.971Z,8.77
2018-07-21T06:14:04.522Z,7.10
2018-07-21T06:19:02.043Z,7.50
2018-07-21T06:23:59.549Z,7.77
2018-07-21T06:28:57.056Z,7.70
2018-07-21T06:33:54.575Z,7.20
2018-07-21T06:38:52.167Z,7.50
2018-07-21T06:43:49.720Z,7.00
2018-07-21T06:48:47.224Z,7.07
2018-07-21T06:53:44.782Z,7.80
2018-07-21T06:58:42.350Z,7.50
2018-07-21T07:03:39.901Z,7.30
2018-07-21T07:08:37.418Z,8.13
2018-07-21T07:13:34.951Z,8.70
2018-07-21T07:18:32.498Z,10.00
2018-07-21T07:23:30.032Z,10.60
2018-07-21T07:28:33.071Z,13.40
2018-07-21T07:33:36.937Z,12.80
2018-07-21T07:38:39.194Z,14.07
2018-07-21T07:43:45.752Z,13.63
2018-07-21T07:48:49.805Z,12.70
2018-07-21T07:53:50.160Z,14.30
2018-07-21T07:58:47.826Z,14.83
2018-07-21T08:03:45.380Z,17.37
2018-07-21T08:08:42.916Z,18.73
2018-07-21T08:13:40.478Z,16.93
2018-07-21T08:18:38.069Z,19.87
2018-07-21T08:23:35.624Z,20.50
2018-07-21T08:28:33.190Z,20.70
2018-07-21T08:33:30.811Z,22.17
2018-07-21T08:38:28.720Z,22.70
2018-07-21T08:43:26.312Z,23.00
2018-07-21T08:48:23.880Z,23.20
2018-07-21T08:53:22.996Z,21.60
2018-07-21T08:58:21.162Z,22.90
2018-07-21T09:03:18.695Z,20.97
2018-07-21T09:08:16.240Z,20.90
2018-07-21T09:13:13.901Z,19.83
2018-07-21T09:18:11.389Z,17.60
2018-07-21T09:23:08.944Z,18.20
2018-07-21T09:28:06.549Z,18.10
2018-07-21T09:33:04.727Z,17.57
2018-07-21T09:38:02.283Z,16.90
2018-07-21T09:42:59.837Z,17.07
2018-07-21T09:47:57.380Z,16.97
2018-07-21T09:52:55.000Z,16.70
2018-07-21T09:57:52.582Z,17.23
2018-07-21T10:02:50.100Z,17.03
2018-07-21T10:07:47.643Z,17.90
2018-07-21T10:12:45.182Z,18.60
2018-07-21T10:17:42.726Z,18.63
2018-07-21T10:22:40.238Z,20.10
2018-07-21T10:27:43.296Z,17.90
2018-07-21T10:32:40.870Z,18.00
2018-07-21T10:37:38.389Z,20.00
2018-07-21T10:42:35.928Z,20.83
2018-07-21T10:47:33.398Z,22.37
2018-07-21T10:52:30.934Z,23.30
2018-07-21T10:57:28.506Z,21.70
2018-07-21T11:02:26.009Z,20.00
2018-07-21T11:07:23.538Z,18.80
2018-07-21T11:12:21.077Z,20.43
2018-07-21T11:17:18.595Z,17.63
2018-07-21T11:22:16.111Z,20.20
2018-07-21T11:27:13.931Z,18.93
2018-07-21T11:32:11.479Z,21.00
2018-07-21T11:37:08.992Z,19.90
2018-07-21T11:42:07.924Z,17.57
2018-07-21T11:47:05.449Z,17.17
2018-07-21T11:52:03.033Z,16.13
2018-07-21T11:57:01.898Z,17.60
2018-07-21T12:01:59.449Z,15.30
2018-07-21T12:06:57.024Z,19.23
2018-07-21T12:11:56.127Z,19.90
2018-07-21T12:16:53.660Z,18.70
2018-07-21T12:21:57.933Z,15.50
2018-07-21T12:26:56.001Z,19.47
2018-07-21T12:31:53.519Z,17.07
2018-07-21T12:36:51.022Z,18.47
2018-07-21T12:41:49.947Z,14.30
2018-07-21T12:46:47.510Z,15.07
2018-07-21T12:51:45.029Z,17.47
2018-07-21T12:56:42.564Z,15.73
2018-07-21T13:01:40.215Z,15.00
2018-07-21T13:06:37.763Z,15.90
2018-07-21T13:11:39.773Z,14.80
2018-07-21T13:16:37.427Z,15.70
2018-07-21T13:21:35.058Z,14.90
2018-07-21T13:26:33.067Z,13.40
2018-07-21T13:31:30.598Z,13.90
2018-07-21T13:36:28.978Z,12.57
2018-07-21T13:41:33.553Z,14.33
2018-07-21T13:46:31.123Z,12.57
2018-07-21T13:51:29.713Z,12.60
2018-07-21T13:56:28.096Z,10.37
2018-07-21T14:01:25.674Z,12.77
2018-07-21T14:06:23.213Z,11.90
2018-07-21T14:11:33.341Z,11.13
2018-07-21T14:16:31.073Z,12.43
2018-07-21T14:21:28.676Z,13.47
2018-07-21T14:26:26.238Z,11.80
2018-07-21T14:31:23.796Z,11.23
2018-07-21T14:36:21.523Z,11.43
2018-07-21T14:41:27.024Z,11.60
2018-07-21T14:46:24.699Z,13.43
2018-07-21T14:51:22.212Z,12.00
2018-07-21T14:56:19.753Z,13.07
2018-07-21T15:01:17.372Z,13.60
2018-07-21T15:06:14.999Z,12.50
2018-07-21T15:11:21.887Z,14.80
2018-07-21T15:16:19.781Z,11.80
2018-07-21T15:21:17.328Z,12.60
2018-07-21T15:26:14.860Z,12.07
2018-07-21T15:31:12.542Z,12.97
2018-07-21T15:36:10.059Z,12.00
2018-07-21T15:41:07.574Z,13.20
2018-07-21T15:46:05.538Z,11.77
2018-07-21T15:51:03.101Z,14.03
2018-07-21T15:56:00.648Z,14.83
2018-07-21T16:00:58.224Z,12.93
2018-07-21T16:05:55.765Z,13.00
2018-07-21T16:10:53.338Z,13.83
2018-07-21T16:15:50.889Z,13.87
2018-07-21T16:20:48.443Z,15.30
2018-07-21T16:25:45.983Z,14.00
2018-07-21T16:30:43.512Z,15.77
2018-07-21T16:35:41.042Z,13.70
2018-07-21T16:40:38.623Z,13.40
2018-07-21T16:45:36.196Z,13.43
2018-07-21T16:50:33.724Z,15.90
2018-07-21T16:55:31.236Z,14.20
2018-07-21T17:00:28.843Z,15.30
2018-07-21T17:05:26.332Z,14.00
2018-07-21T17:10:23.833Z,11.80
2018-07-21T17:15:21.346Z,12.27
2018-07-21T17:20:18.848Z,14.30
2018-07-21T17:25:16.345Z,15.00
2018-07-21T17:30:18.434Z,13.20
2018-07-21T17:35:16.727Z,13.37
2018-07-21T17:40:14.977Z,10.70
2018-07-21T17:45:13.366Z,11.87
2018-07-21T17:50:11.870Z,13.00
2018-07-21T17:55:10.067Z,10.93
2018-07-21T18:00:08.417Z,9.93
2018-07-21T18:05:06.687Z,12.57
2018-07-21T18:10:05.344Z,11.97
2018-07-21T18:15:04.448Z,12.07
2018-07-21T18:20:04.814Z,10.33
2018-07-21T18:25:06.779Z,10.10
2018-07-21T18:30:07.016Z,12.13
2018-07-21T18:35:08.761Z,12.63
2018-07-21T18:40:11.561Z,11.40
2018-07-21T18:45:12.973Z,13.33
2018-07-21T18:50:12.372Z,12.90
2018-07-21T18:55:13.880Z,12.10
2018-07-21T19:00:16.042Z,12.67
2018-07-21T19:05:17.523Z,13.03
2018-07-21T19:10:19.217Z,13.33
2018-07-21T19:15:24.995Z,13.90
2018-07-21T19:20:31.045Z,14.30
2018-07-21T19:25:37.385Z,13.03
2018-07-21T19:30:35.828Z,12.87
2018-07-21T19:35:34.722Z,13.73
2018-07-21T19:40:33.374Z,13.87
2018-07-21T19:45:31.638Z,14.43
2018-07-21T19:50:30.310Z,14.00
2018-07-21T19:55:28.564Z,13.13
2018-07-21T20:00:27.070Z,14.13
2018-07-21T20:05:25.314Z,14.83
2018-07-21T20:10:23.400Z,15.73
2018-07-21T20:15:21.422Z,16.03
2018-07-21T20:20:19.496Z,15.60
2018-07-21T20:25:17.258Z,18.53
2018-07-21T20:30:15.865Z,17.23
2018-07-21T20:35:13.861Z,17.53
2018-07-21T20:40:11.996Z,18.90
2018-07-21T20:45:09.975Z,19.03
2018-07-21T20:50:08.092Z,15.67
2018-07-21T20:55:05.995Z,21.30
2018-07-21T21:00:04.590Z,22.17
2018-07-21T21:05:02.975Z,17.70
2018-07-21T21:10:01.030Z,20.87
2018-07-21T21:14:59.160Z,22.23
2018-07-21T21:19:57.405Z,21.57
2018-07-21T21:24:55.360Z,23.40
2018-07-21T21:29:53.445Z,20.80
2018-07-21T21:34:51.561Z,24.40
2018-07-21T21:39:49.859Z,24.20
2018-07-21T21:44:48.248Z,25.73
2018-07-21T21:49:46.409Z,25.40
2018-07-21T21:54:44.688Z,25.30
2018-07-21T21:59:43.021Z,24.50
2018-07-21T22:05:44.120Z,23.37
2018-07-21T22:10:42.253Z,24.90
2018-07-21T22:15:40.501Z,23.00
2018-07-21T22:20:38.619Z,23.10
2018-07-21T22:25:37.200Z,23.33
2018-07-21T22:30:35.686Z,24.27
2018-07-21T22:35:33.211Z,21.53
2018-07-21T22:40:30.728Z,23.50
2018-07-21T22:45:28.762Z,23.23
2018-07-21T22:50:26.288Z,21.70
2018-07-21T22:55:23.754Z,24.10
2018-07-21T23:00:21.284Z,25.90
2018-07-21T23:05:18.770Z,23.50
2018-07-21T23:10:16.276Z,26.13
2018-07-21T23:15:13.791Z,24.70
2018-07-21T23:20:11.291Z,24.77
2018-07-21T23:25:08.829Z,26.10
2018-07-21T23:30:06.333Z,21.97
2018-07-21T23:35:03.981Z,26.60
2018-07-21T23:40:01.475Z,27.40
2018-07-21T23:44:58.945Z,24.50
2018-07-21T23:49:56.432Z,28.70
2018-07-21T23:54:53.953Z,28.57
2018-07-21T23:59:51.470Z,27.27
